Time,TemperatureF,DewpointF,PressureIn,WindDirection,WindDirectionDegrees,WindSpeedMPH,WindSpeedGustMPH,Humidity,HourlyPrecipIn,Conditions,Clouds,dailyrainin,SoftwareType,DateUTC
2013-02-10 00:00:00,32.0,19.4,29.92,ENE,68,0.0,0.2,59,0.00,,,0.00,WUHU216HW,2013-02-10 07:00:00,
2013-02-10 00:05:00,32.0,19.4,29.92,ENE,68,0.2,0.2,59,0.00,,,0.00,WUHU216HW,2013-02-10 07:05:00,
2013-02-10 00:10:00,31.9,19.2,29.92,ENE,68,0.0,0.2,59,0.00,,,0.00,WUHU216HW,2013-02-10 07:10:00,
2013-02-10 00:15:00,31.7,19.4,29.92,ENE,68,0.0,0.2,60,0.00,,,0.00,WUHU216HW,2013-02-10 07:15:00,
2013-02-10 00:20:00,31.3,19.1,29.92,ENE,68,0.9,1.1,60,0.00,,,0.00,WUHU216HW,2013-02-10 07:20:00,
2013-02-10 00:25:00,31.3,19.4,29.92,SW,225,0.0,1.1,61,0.00,,,0.00,WUHU216HW,2013-02-10 07:25:00,
2013-02-10 00:30:00,31.3,19.4,29.92,SSW,203,0.0,1.6,61,0.00,,,0.00,WUHU216HW,2013-02-10 07:30:00,
2013-02-10 00:35:00,31.1,19.3,29.92,South,180,0.0,1.6,61,0.00,,,0.00,WUHU216HW,2013-02-10 07:35:00,
2013-02-10 00:40:00,31.0,19.1,29.92,South,180,0.0,0.0,61,0.00,,,0.00,WUHU216HW,2013-02-10 07:40:00,
2013-02-10 00:45:00,30.8,19.3,29.92,SE,135,0.0,0.4,62,0.00,,,0.00,WUHU216HW,2013-02-10 07:45:00,
2013-02-10 00:49:00,30.8,19.3,29.92,SE,135,0.0,0.4,62,0.00,,,0.00,WUHU216HW,2013-02-10 07:49:00,
2013-02-10 00:54:00,30.6,19.1,29.92,SE,135,0.0,0.0,62,0.00,,,0.00,WUHU216HW,2013-02-10 07:54:00,
2013-02-10 00:59:00,30.2,18.7,29.92,SE,135,0.0,0.0,62,0.00,,,0.00,WUHU216HW,2013-02-10 07:59:00,
2013-02-10 01:04:00,30.2,18.7,29.92,SE,135,0.0,0.0,62,0.00,,,0.00,WUHU216HW,2013-02-10 08:04:00,
2013-02-10 01:09:00,30.1,18.9,29.92,SE,135,0.0,0.0,63,0.00,,,0.00,WUHU216HW,2013-02-10 08:09:00,
2013-02-10 01:14:00,29.9,18.7,29.92,SE,135,0.0,0.2,63,0.00,,,0.00,WUHU216HW,2013-02-10 08:14:00,
2013-02-10 01:19:00,29.9,19.1,29.92,SE,135,0.2,0.2,64,0.00,,,0.00,WUHU216HW,2013-02-10 08:19:00,
2013-02-10 01:24:00,29.9,19.1,29.92,SE,135,0.0,0.2,64,0.00,,,0.00,WUHU216HW,2013-02-10 08:24:00,
2013-02-10 01:29:00,29.7,19.0,29.92,SE,135,0.0,0.2,64,0.00,,,0.00,WUHU216HW,2013-02-10 08:29:00,
2013-02-10 01:34:00,29.7,19.0,29.92,SE,135,0.0,0.0,64,0.00,,,0.00,WUHU216HW,2013-02-10 08:34:00,
2013-02-10 01:39:00,29.3,18.6,29.92,SE,135,0.0,0.0,64,0.00,,,0.00,WUHU216HW,2013-02-10 08:39:00,
2013-02-10 01:44:00,29.2,18.5,29.92,SE,135,0.0,0.0,64,0.00,,,0.00,WUHU216HW,2013-02-10 08:44:00,
2013-02-10 01:49:00,28.8,18.6,29.91,SE,135,0.0,0.9,65,0.00,,,0.00,WUHU216HW,2013-02-10 08:49:00,
2013-02-10 01:54:00,28.4,18.2,29.91,SE,135,0.0,0.9,65,0.00,,,0.00,WUHU216HW,2013-02-10 08:54:00,
2013-02-10 01:59:00,28.3,18.0,29.92,SE,135,0.0,0.0,65,0.00,,,0.00,WUHU216HW,2013-02-10 08:59:00,
2013-02-10 02:04:00,28.3,18.0,29.92,SE,135,0.0,0.0,65,0.00,,,0.00,WUHU216HW,2013-02-10 09:04:00,
2013-02-10 02:09:00,28.3,18.4,29.92,SE,135,0.0,0.0,66,0.00,,,0.00,WUHU216HW,2013-02-10 09:09:00,
2013-02-10 02:14:00,28.4,18.5,29.91,SE,135,0.0,0.0,66,0.00,,,0.00,WUHU216HW,2013-02-10 09:14:00,
2013-02-10 02:20:00,28.3,18.4,29.91,WSW,248,0.7,0.7,66,0.00,,,0.00,WUHU216HW,2013-02-10 09:20:00,
2013-02-10 02:25:00,28.3,18.4,29.91,SE,135,0.0,1.1,66,0.00,,,0.00,WUHU216HW,2013-02-10 09:25:00,
2013-02-10 02:30:00,28.1,18.2,29.91,SE,135,0.0,1.1,66,0.00,,,0.00,WUHU216HW,2013-02-10 09:30:00,
2013-02-10 02:35:00,27.7,17.8,29.91,SE,135,0.0,0.2,66,0.00,,,0.00,WUHU216HW,2013-02-10 09:35:00,
2013-02-10 02:40:00,27.7,17.8,29.91,SE,135,0.2,0.4,66,0.00,,,0.00,WUHU216HW,2013-02-10 09:40:00,
2013-02-10 02:45:00,27.7,18.2,29.91,SE,135,0.0,0.4,67,0.00,,,0.00,WUHU216HW,2013-02-10 09:45:00,
2013-02-10 02:50:00,27.5,18.0,29.91,SE,135,0.0,0.4,67,0.00,,,0.00,WUHU216HW,2013-02-10 09:50:00,
2013-02-10 02:55:00,27.4,17.8,29.91,SE,135,0.0,0.0,67,0.00,,,0.00,WUHU216HW,2013-02-10 09:55:00,
2013-02-10 03:00:00,27.2,17.6,29.91,SE,135,0.0,0.0,67,0.00,,,0.00,WUHU216HW,2013-02-10 10:00:00,
2013-02-10 03:05:00,27.0,17.8,29.90,SE,135,0.0,0.0,68,0.00,,,0.00,WUHU216HW,2013-02-10 10:05:00,
2013-02-10 03:10:00,27.0,17.8,29.90,SE,135,0.0,0.0,68,0.00,,,0.00,WUHU216HW,2013-02-10 10:10:00,
2013-02-10 03:15:00,26.8,17.6,29.90,SE,135,0.0,0.0,68,0.00,,,0.00,WUHU216HW,2013-02-10 10:15:00,
2013-02-10 03:20:00,26.6,17.5,29.90,SE,135,0.0,0.0,68,0.00,,,0.00,WUHU216HW,2013-02-10 10:20:00,
2013-02-10 03:25:00,26.6,17.8,29.90,SE,135,0.0,0.0,69,0.00,,,0.00,WUHU216HW,2013-02-10 10:25:00,
2013-02-10 03:30:00,26.6,17.8,29.90,SE,135,0.0,0.2,69,0.00,,,0.00,WUHU216HW,2013-02-10 10:30:00,
2013-02-10 03:35:00,26.6,17.8,29.90,SE,135,0.0,0.2,69,0.00,,,0.00,WUHU216HW,2013-02-10 10:35:00,
2013-02-10 03:40:00,26.5,17.6,29.90,SE,135,0.0,0.0,69,0.00,,,0.00,WUHU216HW,2013-02-10 10:40:00,
2013-02-10 03:45:00,26.3,17.8,29.90,SE,135,0.0,0.0,70,0.00,,,0.00,WUHU216HW,2013-02-10 10:45:00,
2013-02-10 03:50:00,26.3,17.8,29.89,SE,135,0.0,0.0,70,0.00,,,0.00,WUHU216HW,2013-02-10 10:50:00,
2013-02-10 03:55:00,26.1,17.6,29.89,SE,135,0.0,0.0,70,0.00,,,0.00,WUHU216HW,2013-02-10 10:55:00,
2013-02-10 04:00:00,26.3,17.8,29.89,SE,135,0.0,0.0,70,0.00,,,0.00,WUHU216HW,2013-02-10 11:00:00,
2013-02-10 04:05:00,26.3,17.8,29.89,SE,135,0.0,0.0,70,0.00,,,0.00,WUHU216HW,2013-02-10 11:05:00,
2013-02-10 04:10:00,26.3,17.8,29.89,SE,135,0.0,0.0,70,0.00,,,0.00,WUHU216HW,2013-02-10 11:10:00,
2013-02-10 04:15:00,26.1,17.6,29.89,SE,135,0.0,0.0,70,0.00,,,0.00,WUHU216HW,2013-02-10 11:15:00,
2013-02-10 04:20:00,26.1,17.6,29.89,SE,135,0.0,0.0,70,0.00,,,0.00,WUHU216HW,2013-02-10 11:20:00,
2013-02-10 04:25:00,25.9,17.5,29.88,SE,135,0.0,0.0,70,0.00,,,0.00,WUHU216HW,2013-02-10 11:25:00,
2013-02-10 04:30:00,25.7,17.6,29.89,SE,135,0.0,0.0,71,0.00,,,0.00,WUHU216HW,2013-02-10 11:30:00,
2013-02-10 04:35:00,25.6,17.5,29.88,SE,135,0.0,0.0,71,0.00,,,0.00,WUHU216HW,2013-02-10 11:35:00,
2013-02-10 04:40:00,25.6,17.5,29.89,SE,135,0.0,0.0,71,0.00,,,0.00,WUHU216HW,2013-02-10 11:40:00,
2013-02-10 04:45:00,25.6,17.5,29.89,SE,135,0.0,0.0,71,0.00,,,0.00,WUHU216HW,2013-02-10 11:45:00,
2013-02-10 04:50:00,25.6,17.5,29.88,SE,135,0.0,0.0,71,0.00,,,0.00,WUHU216HW,2013-02-10 11:50:00,
2013-02-10 04:55:00,25.6,17.7,29.89,SE,135,0.0,0.0,72,0.00,,,0.00,WUHU216HW,2013-02-10 11:55:00,
2013-02-10 05:00:00,25.6,17.7,29.89,SE,135,0.0,0.0,72,0.00,,,0.00,WUHU216HW,2013-02-10 12:00:00,
2013-02-10 05:05:00,25.6,17.7,29.89,SE,135,0.0,0.4,72,0.00,,,0.00,WUHU216HW,2013-02-10 12:05:00,
2013-02-10 05:10:00,25.6,17.7,29.89,SE,135,0.0,0.4,72,0.00,,,0.00,WUHU216HW,2013-02-10 12:10:00,
2013-02-10 05:15:00,25.2,17.4,29.89,SE,135,0.0,0.2,72,0.00,,,0.00,WUHU216HW,2013-02-10 12:15:00,
2013-02-10 05:20:00,25.2,17.4,29.88,SE,135,0.0,0.2,72,0.00,,,0.00,WUHU216HW,2013-02-10 12:20:00,
2013-02-10 05:25:00,25.0,17.2,29.88,SE,135,0.0,0.0,72,0.00,,,0.00,WUHU216HW,2013-02-10 12:25:00,
2013-02-10 05:30:00,25.0,17.2,29.89,SE,135,0.0,0.0,72,0.00,,,0.00,WUHU216HW,2013-02-10 12:30:00,
2013-02-10 05:35:00,24.8,17.0,29.89,SE,135,0.0,0.4,72,0.00,,,0.00,WUHU216HW,2013-02-10 12:35:00,
2013-02-10 05:40:00,24.8,17.0,29.89,SE,135,0.0,0.4,72,0.00,,,0.00,WUHU216HW,2013-02-10 12:40:00,
2013-02-10 05:45:00,24.8,17.0,29.89,SE,135,0.0,0.0,72,0.00,,,0.00,WUHU216HW,2013-02-10 12:45:00,
2013-02-10 05:50:00,24.7,17.2,29.89,SE,135,0.0,0.0,73,0.00,,,0.00,WUHU216HW,2013-02-10 12:50:00,
2013-02-10 05:56:00,24.7,17.2,29.89,SE,135,0.0,0.0,73,0.00,,,0.00,WUHU216HW,2013-02-10 12:56:00,
2013-02-10 06:01:00,24.7,17.2,29.89,SE,135,0.0,0.0,73,0.00,,,0.00,WUHU216HW,2013-02-10 13:01:00,
2013-02-10 06:06:00,24.7,17.2,29.89,SE,135,0.0,0.0,73,0.00,,,0.00,WUHU216HW,2013-02-10 13:06:00,
2013-02-10 06:11:00,24.5,17.0,29.89,SE,135,0.0,0.0,73,0.00,,,0.00,WUHU216HW,2013-02-10 13:11:00,
2013-02-10 06:16:00,24.3,16.8,29.89,SE,135,0.0,0.0,73,0.00,,,0.00,WUHU216HW,2013-02-10 13:16:00,
2013-02-10 06:21:00,24.1,16.7,29.90,SE,135,0.0,0.2,73,0.00,,,0.00,WUHU216HW,2013-02-10 13:21:00,
2013-02-10 06:26:00,24.1,16.7,29.89,SE,135,0.0,0.2,73,0.00,,,0.00,WUHU216HW,2013-02-10 13:26:00,
2013-02-10 06:31:00,23.9,16.8,29.90,SE,135,0.0,0.0,74,0.00,,,0.00,WUHU216HW,2013-02-10 13:31:00,
2013-02-10 06:36:00,23.9,16.8,29.90,SE,135,0.0,0.0,74,0.00,,,0.00,WUHU216HW,2013-02-10 13:36:00,
2013-02-10 06:41:00,23.8,16.7,29.90,SE,135,0.0,0.0,74,0.00,,,0.00,WUHU216HW,2013-02-10 13:41:00,
2013-02-10 06:46:00,23.6,16.5,29.90,SE,135,0.0,0.0,74,0.00,,,0.00,WUHU216HW,2013-02-10 13:46:00,
2013-02-10 06:51:00,23.6,16.5,29.90,SE,135,0.0,0.0,74,0.00,,,0.00,WUHU216HW,2013-02-10 13:51:00,
2013-02-10 06:56:00,23.6,16.8,29.90,SE,135,0.0,0.0,75,0.00,,,0.00,WUHU216HW,2013-02-10 13:56:00,
2013-02-10 07:01:00,23.4,16.7,29.90,SE,135,0.0,0.0,75,0.00,,,0.00,WUHU216HW,2013-02-10 14:01:00,
2013-02-10 07:06:00,23.4,16.7,29.90,SE,135,0.0,0.0,75,0.00,,,0.00,WUHU216HW,2013-02-10 14:06:00,
2013-02-10 07:11:00,23.4,16.7,29.90,SE,135,0.0,0.0,75,0.00,,,0.00,WUHU216HW,2013-02-10 14:11:00,
2013-02-10 07:16:00,23.4,16.7,29.90,SE,135,0.0,0.0,75,0.00,,,0.00,WUHU216HW,2013-02-10 14:16:00,
2013-02-10 07:21:00,23.6,16.8,29.90,SE,135,0.0,0.0,75,0.00,,,0.00,WUHU216HW,2013-02-10 14:21:00,
2013-02-10 07:26:00,23.8,17.0,29.90,SE,135,0.2,0.2,75,0.00,,,0.00,WUHU216HW,2013-02-10 14:26:00,
2013-02-10 07:31:00,23.8,17.0,29.90,SE,135,0.0,0.2,75,0.00,,,0.00,WUHU216HW,2013-02-10 14:31:00,
2013-02-10 07:36:00,24.1,17.3,29.90,SE,135,0.0,0.2,75,0.00,,,0.00,WUHU216HW,2013-02-10 14:36:00,
2013-02-10 07:41:00,24.3,17.5,29.91,SE,135,0.0,0.0,75,0.00,,,0.00,WUHU216HW,2013-02-10 14:41:00,
2013-02-10 07:46:00,24.8,18.0,29.91,SE,135,0.0,0.0,75,0.00,,,0.00,WUHU216HW,2013-02-10 14:46:00,
2013-02-10 07:51:00,25.0,18.2,29.91,SE,135,0.0,0.0,75,0.00,,,0.00,WUHU216HW,2013-02-10 14:51:00,
2013-02-10 07:56:00,25.6,18.7,29.91,SE,135,0.0,0.0,75,0.00,,,0.00,WUHU216HW,2013-02-10 14:56:00,
2013-02-10 08:01:00,25.9,19.0,29.91,SE,135,0.0,0.0,75,0.00,,,0.00,WUHU216HW,2013-02-10 15:01:00,
2013-02-10 08:06:00,26.3,19.4,29.91,SE,135,0.0,0.0,75,0.00,,,0.00,WUHU216HW,2013-02-10 15:06:00,
2013-02-10 08:11:00,26.8,19.6,29.91,SE,135,0.0,0.0,74,0.00,,,0.00,WUHU216HW,2013-02-10 15:11:00,
2013-02-10 08:16:00,27.2,19.6,29.91,SE,135,0.4,0.4,73,0.00,,,0.00,WUHU216HW,2013-02-10 15:16:00,
2013-02-10 08:21:00,28.1,20.5,29.91,SE,135,0.0,1.1,73,0.00,,,0.00,WUHU216HW,2013-02-10 15:21:00,
2013-02-10 08:25:00,28.6,21.1,29.91,SE,135,0.0,1.1,73,0.00,,,0.00,WUHU216HW,2013-02-10 15:25:00,
2013-02-10 08:30:00,29.2,21.2,29.91,SE,135,0.0,0.4,72,0.00,,,0.00,WUHU216HW,2013-02-10 15:30:00,
2013-02-10 08:36:00,29.7,21.2,29.91,SE,135,0.0,0.4,70,0.00,,,0.00,WUHU216HW,2013-02-10 15:36:00,
2013-02-10 08:41:00,30.2,21.2,29.91,SSW,203,0.0,0.7,69,0.00,,,0.00,WUHU216HW,2013-02-10 15:41:00,
2013-02-10 08:46:00,31.0,22.0,29.91,SE,135,0.0,0.7,69,0.00,,,0.00,WUHU216HW,2013-02-10 15:46:00,
2013-02-10 08:51:00,31.5,22.1,29.91,SSE,158,0.0,0.4,68,0.00,,,0.00,WUHU216HW,2013-02-10 15:51:00,
2013-02-10 08:56:00,32.0,22.7,29.91,SE,135,0.0,0.4,68,0.00,,,0.00,WUHU216HW,2013-02-10 15:56:00,
2013-02-10 09:01:00,32.6,22.8,29.91,SSE,158,0.0,0.7,67,0.00,,,0.00,WUHU216HW,2013-02-10 16:01:00,
2013-02-10 09:06:00,33.1,23.0,29.91,SW,225,1.1,1.8,66,0.00,,,0.00,WUHU216HW,2013-02-10 16:06:00,
2013-02-10 09:11:00,33.7,23.0,29.91,SE,135,1.3,1.8,65,0.00,,,0.00,WUHU216HW,2013-02-10 16:11:00,
2013-02-10 09:16:00,34.2,23.6,29.91,SE,135,0.0,1.8,65,0.00,,,0.00,WUHU216HW,2013-02-10 16:16:00,
2013-02-10 09:21:00,34.6,22.9,29.91,SSW,203,0.9,1.6,62,0.00,,,0.00,WUHU216HW,2013-02-10 16:21:00,
2013-02-10 09:26:00,35.1,23.0,29.91,SW,225,0.9,2.2,61,0.00,,,0.00,WUHU216HW,2013-02-10 16:26:00,
2013-02-10 09:31:00,35.5,23.4,29.91,WSW,248,0.9,2.5,61,0.00,,,0.00,WUHU216HW,2013-02-10 16:31:00,
2013-02-10 09:36:00,36.0,23.6,29.91,SW,225,1.3,2.5,60,0.00,,,0.00,WUHU216HW,2013-02-10 16:36:00,
2013-02-10 09:41:00,36.4,23.4,29.91,SE,135,4.0,4.0,59,0.00,,,0.00,WUHU216HW,2013-02-10 16:41:00,
2013-02-10 09:46:00,36.7,22.9,29.91,SW,225,2.9,4.0,57,0.00,,,0.00,WUHU216HW,2013-02-10 16:46:00,
2013-02-10 09:51:00,37.1,22.8,29.91,WSW,248,1.6,4.0,56,0.00,,,0.00,WUHU216HW,2013-02-10 16:51:00,
2013-02-10 09:56:00,37.4,22.7,29.91,SE,135,0.9,3.6,55,0.00,,,0.00,WUHU216HW,2013-02-10 16:56:00,
2013-02-10 10:01:00,37.8,23.1,29.91,SSE,158,1.8,3.6,55,0.00,,,0.00,WUHU216HW,2013-02-10 17:01:00,
2013-02-10 10:06:00,38.2,23.3,29.91,SE,135,2.5,3.4,55,0.00,,,0.00,WUHU216HW,2013-02-10 17:06:00,
2013-02-10 10:12:00,38.7,23.9,29.91,SSW,203,0.4,2.5,55,0.00,,,0.00,WUHU216HW,2013-02-10 17:12:00,
2013-02-10 10:17:00,39.1,22.9,29.91,SSE,158,1.1,3.4,52,0.00,,,0.00,WUHU216HW,2013-02-10 17:17:00,
2013-02-10 10:23:00,39.2,23.4,29.91,ESE,113,3.8,3.8,53,0.00,,,0.00,WUHU216HW,2013-02-10 17:23:00,
2013-02-10 10:28:00,39.6,23.3,29.91,ESE,113,1.1,3.8,52,0.00,,,0.00,WUHU216HW,2013-02-10 17:28:00,
2013-02-10 10:33:00,39.8,23.0,29.91,ESE,113,1.3,3.8,51,0.00,,,0.00,WUHU216HW,2013-02-10 17:33:00,
2013-02-10 10:38:00,40.0,23.2,29.91,SE,135,2.7,2.9,51,0.00,,,0.00,WUHU216HW,2013-02-10 17:38:00,
2013-02-10 10:43:00,40.3,23.6,29.91,ESE,113,0.0,2.9,51,0.00,,,0.00,WUHU216HW,2013-02-10 17:43:00,
2013-02-10 10:48:00,40.7,23.0,29.91,WSW,248,1.1,2.9,49,0.00,,,0.00,WUHU216HW,2013-02-10 17:48:00,
2013-02-10 10:53:00,40.7,22.4,29.91,SW,225,2.2,2.9,48,0.00,,,0.00,WUHU216HW,2013-02-10 17:53:00,
2013-02-10 10:58:00,41.0,22.2,29.91,South,180,0.9,3.8,47,0.00,,,0.00,WUHU216HW,2013-02-10 17:58:00,
2013-02-10 11:03:00,41.2,21.9,29.91,South,180,1.6,3.8,46,0.00,,,0.00,WUHU216HW,2013-02-10 18:03:00,
2013-02-10 11:08:00,41.4,21.5,29.91,South,180,0.9,3.4,45,0.00,,,0.00,WUHU216HW,2013-02-10 18:08:00,
2013-02-10 11:13:00,41.8,21.9,29.91,ESE,113,1.6,3.4,45,0.00,,,0.00,WUHU216HW,2013-02-10 18:13:00,
2013-02-10 11:18:00,41.9,22.0,29.90,West,270,4.7,4.7,45,0.00,,,0.00,WUHU216HW,2013-02-10 18:18:00,
2013-02-10 11:23:00,42.1,20.6,29.90,WSW,248,2.9,5.1,42,0.00,,,0.00,WUHU216HW,2013-02-10 18:23:00,
2013-02-10 11:28:00,42.3,20.7,29.90,West,270,2.2,5.1,42,0.00,,,0.00,WUHU216HW,2013-02-10 18:28:00,
2013-02-10 11:33:00,42.1,21.2,29.90,SSE,158,1.1,4.0,43,0.00,,,0.00,WUHU216HW,2013-02-10 18:33:00,
2013-02-10 11:38:00,42.8,22.3,29.90,ESE,113,2.5,3.6,44,0.00,,,0.00,WUHU216HW,2013-02-10 18:38:00,
2013-02-10 11:43:00,43.2,22.2,29.90,SE,135,1.1,6.9,43,0.00,,,0.00,WUHU216HW,2013-02-10 18:43:00,
2013-02-10 11:48:00,43.6,20.8,29.89,South,180,1.8,6.9,40,0.00,,,0.00,WUHU216HW,2013-02-10 18:48:00,
2013-02-10 11:53:00,43.7,21.0,29.89,ESE,113,2.2,5.6,40,0.00,,,0.00,WUHU216HW,2013-02-10 18:53:00,
2013-02-10 11:58:00,44.1,19.3,29.89,WNW,293,4.0,6.7,37,0.00,,,0.00,WUHU216HW,2013-02-10 18:58:00,
2013-02-10 12:03:00,44.5,19.0,29.89,SE,135,2.9,6.7,36,0.00,,,0.00,WUHU216HW,2013-02-10 19:03:00,
2013-02-10 12:08:00,45.0,19.4,29.88,WSW,248,1.8,4.0,36,0.00,,,0.00,WUHU216HW,2013-02-10 19:08:00,
2013-02-10 12:13:00,45.2,17.7,29.88,WSW,248,4.0,6.5,33,0.00,,,0.00,WUHU216HW,2013-02-10 19:13:00,
2013-02-10 12:18:00,45.5,17.9,29.88,WNW,293,2.5,6.5,33,0.00,,,0.00,WUHU216HW,2013-02-10 19:18:00,
2013-02-10 12:23:00,45.7,18.1,29.88,WSW,248,2.5,5.6,33,0.00,,,0.00,WUHU216HW,2013-02-10 19:23:00,
2013-02-10 12:28:00,46.1,19.1,29.88,SW,225,2.5,5.6,34,0.00,,,0.00,WUHU216HW,2013-02-10 19:28:00,
2013-02-10 12:33:00,46.4,19.5,29.87,WSW,248,0.4,4.7,34,0.00,,,0.00,WUHU216HW,2013-02-10 19:33:00,
2013-02-10 12:38:00,46.8,19.1,29.87,WSW,248,2.9,5.4,33,0.00,,,0.00,WUHU216HW,2013-02-10 19:38:00,
2013-02-10 12:43:00,47.2,18.7,29.86,SW,225,3.4,6.7,32,0.00,,,0.00,WUHU216HW,2013-02-10 19:43:00,
2013-02-10 12:48:00,47.3,16.7,29.86,NW,315,5.1,8.1,29,0.00,,,0.00,WUHU216HW,2013-02-10 19:48:00,
2013-02-10 12:53:00,47.3,15.7,29.86,SW,225,3.6,8.1,28,0.00,,,0.00,WUHU216HW,2013-02-10 19:53:00,
2013-02-10 12:58:00,47.5,15.8,29.86,SW,225,2.2,6.9,28,0.00,,,0.00,WUHU216HW,2013-02-10 19:58:00,
2013-02-10 13:03:00,47.7,15.1,29.85,North,0,3.4,6.3,27,0.00,,,0.00,WUHU216HW,2013-02-10 20:03:00,
2013-02-10 13:08:00,48.2,12.8,29.85,WSW,248,5.8,6.0,24,0.00,,,0.00,WUHU216HW,2013-02-10 20:08:00,
2013-02-10 13:13:00,48.6,14.0,29.85,SE,135,1.3,6.0,25,0.00,,,0.00,WUHU216HW,2013-02-10 20:13:00,
2013-02-10 13:18:00,49.1,11.7,29.85,SW,225,6.3,7.6,22,0.00,,,0.00,WUHU216HW,2013-02-10 20:18:00,
2013-02-10 13:23:00,48.4,11.1,29.85,WNW,293,5.8,7.6,22,0.00,,,0.00,WUHU216HW,2013-02-10 20:23:00,
2013-02-10 13:28:00,48.6,12.2,29.84,West,270,3.8,7.6,23,0.00,,,0.00,WUHU216HW,2013-02-10 20:28:00,
2013-02-10 13:33:00,48.8,11.3,29.85,SW,225,6.0,7.6,22,0.00,,,0.00,WUHU216HW,2013-02-10 20:33:00,
2013-02-10 13:38:00,49.1,11.7,29.84,WNW,293,9.8,9.8,22,0.00,,,0.00,WUHU216HW,2013-02-10 20:38:00,
2013-02-10 13:43:00,49.3,12.8,29.84,WSW,248,6.0,9.8,23,0.00,,,0.00,WUHU216HW,2013-02-10 20:43:00,
2013-02-10 13:48:00,49.9,13.2,29.84,WNW,293,5.4,6.9,23,0.00,,,0.00,WUHU216HW,2013-02-10 20:48:00,
2013-02-10 13:53:00,49.7,11.3,29.84,SW,225,4.9,8.3,21,0.00,,,0.00,WUHU216HW,2013-02-10 20:53:00,
2013-02-10 13:58:00,49.9,11.3,29.84,SW,225,6.9,8.3,21,0.00,,,0.00,WUHU216HW,2013-02-10 20:58:00,
2013-02-10 14:03:00,50.2,11.7,29.83,WSW,248,4.7,7.6,21,0.00,,,0.00,WUHU216HW,2013-02-10 21:03:00,
2013-02-10 14:09:00,50.8,11.2,29.83,West,270,5.4,9.8,20,0.00,,,0.00,WUHU216HW,2013-02-10 21:09:00,
2013-02-10 14:14:00,50.6,12.0,29.83,West,270,2.9,9.8,21,0.00,,,0.00,WUHU216HW,2013-02-10 21:14:00,
2013-02-10 14:19:00,50.8,8.2,29.84,West,270,4.7,12.1,18,0.00,,,0.00,WUHU216HW,2013-02-10 21:19:00,
2013-02-10 14:24:00,50.9,5.3,29.84,SW,225,5.8,12.1,16,0.00,,,0.00,WUHU216HW,2013-02-10 21:24:00,
2013-02-10 14:29:00,51.3,4.1,29.84,WNW,293,6.9,9.8,15,0.00,,,0.00,WUHU216HW,2013-02-10 21:29:00,
2013-02-10 14:34:00,51.3,5.6,29.84,SW,225,3.4,9.8,16,0.00,,,0.00,WUHU216HW,2013-02-10 21:34:00,
2013-02-10 14:39:00,51.7,5.9,29.84,SE,135,2.5,9.8,16,0.00,,,0.00,WUHU216HW,2013-02-10 21:39:00,
2013-02-10 14:45:00,52.0,4.7,29.83,NW,315,3.6,8.1,15,0.00,,,0.00,WUHU216HW,2013-02-10 21:45:00,
2013-02-10 14:49:00,51.8,3.0,29.83,WNW,293,9.6,9.6,14,0.00,,,0.00,WUHU216HW,2013-02-10 21:49:00,
2013-02-10 14:55:00,51.8,3.0,29.84,WSW,248,5.8,9.8,14,0.00,,,0.00,WUHU216HW,2013-02-10 21:55:00,
2013-02-10 15:00:00,52.0,0.1,29.84,WSW,248,4.7,10.1,12,0.00,,,0.00,WUHU216HW,2013-02-10 22:00:00,
2013-02-10 15:06:00,51.8,-1.5,29.84,WNW,293,5.4,10.5,11,0.00,,,0.00,WUHU216HW,2013-02-10 22:06:00,
2013-02-10 15:11:00,52.0,-1.4,29.83,West,270,5.4,11.0,11,0.00,,,0.00,WUHU216HW,2013-02-10 22:11:00,
2013-02-10 15:15:00,52.2,-1.3,29.83,WSW,248,6.0,11.0,11,0.00,,,0.00,WUHU216HW,2013-02-10 22:15:00,
2013-02-10 15:21:00,52.2,0.3,29.83,West,270,6.5,9.6,12,0.00,,,0.00,WUHU216HW,2013-02-10 22:21:00,
2013-02-10 15:26:00,52.2,0.3,29.83,SW,225,7.6,9.8,12,0.00,,,0.00,WUHU216HW,2013-02-10 22:26:00,
2013-02-10 15:31:00,51.8,0.0,29.82,WSW,248,7.2,13.2,12,0.00,,,0.00,WUHU216HW,2013-02-10 22:31:00,
2013-02-10 15:36:00,51.8,3.0,29.82,WSW,248,2.5,13.2,14,0.00,,,0.00,WUHU216HW,2013-02-10 22:36:00,
2013-02-10 15:41:00,52.0,0.1,29.82,NW,315,6.0,8.1,12,0.00,,,0.00,WUHU216HW,2013-02-10 22:41:00,
2013-02-10 15:46:00,51.8,0.0,29.83,West,270,6.3,9.8,12,0.00,,,0.00,WUHU216HW,2013-02-10 22:46:00,
2013-02-10 15:51:00,51.8,0.0,29.83,West,270,5.6,13.6,12,0.00,,,0.00,WUHU216HW,2013-02-10 22:51:00,
2013-02-10 15:55:00,51.8,3.0,29.83,West,270,5.4,13.6,14,0.00,,,0.00,WUHU216HW,2013-02-10 22:55:00,
2013-02-10 16:00:00,52.0,0.1,29.83,South,180,5.6,11.6,12,0.00,,,0.00,WUHU216HW,2013-02-10 23:00:00,
2013-02-10 16:05:00,51.8,0.0,29.83,West,270,7.4,12.3,12,0.00,,,0.00,WUHU216HW,2013-02-10 23:05:00,
2013-02-10 16:10:00,52.0,-1.4,29.82,SSE,158,12.1,14.3,11,0.00,,,0.00,WUHU216HW,2013-02-10 23:10:00,
2013-02-10 16:15:00,52.0,-1.4,29.83,West,270,12.1,14.3,11,0.00,,,0.00,WUHU216HW,2013-02-10 23:15:00,
2013-02-10 16:20:00,51.8,-3.1,29.83,WSW,248,8.7,12.8,10,0.00,,,0.00,WUHU216HW,2013-02-10 23:20:00,
2013-02-10 16:25:00,52.0,-2.9,29.83,NNW,338,7.6,12.1,8,0.00,,,0.00,WUHU216HW,2013-02-10 23:25:00,
2013-02-10 16:30:00,51.8,-3.1,29.83,SSW,203,5.6,11.2,8,0.00,,,0.00,WUHU216HW,2013-02-10 23:30:00,
2013-02-10 16:35:00,51.5,-3.3,29.83,WSW,248,9.2,12.1,7,0.00,,,0.00,WUHU216HW,2013-02-10 23:35:00,
2013-02-10 16:40:00,51.5,-3.3,29.83,NW,315,11.4,14.1,8,0.00,,,0.00,WUHU216HW,2013-02-10 23:40:00,
2013-02-10 16:45:00,51.3,-3.5,29.83,WNW,293,6.7,14.1,8,0.00,,,0.00,WUHU216HW,2013-02-10 23:45:00,
2013-02-10 16:50:00,51.1,-3.6,29.83,WSW,248,5.4,11.4,8,0.00,,,0.00,WUHU216HW,2013-02-10 23:50:00,
2013-02-10 16:55:00,50.9,-3.8,29.83,WNW,293,6.9,9.8,10,0.00,,,0.00,WUHU216HW,2013-02-10 23:55:00,
2013-02-10 17:00:00,50.8,-4.0,29.84,SSW,203,8.1,11.6,10,0.00,,,0.00,WUHU216HW,2013-02-11 00:00:00,
2013-02-10 17:05:00,50.8,-4.0,29.84,WSW,248,12.1,12.1,10,0.00,,,0.00,WUHU216HW,2013-02-11 00:05:00,
2013-02-10 17:10:00,50.4,-2.7,29.84,SW,225,11.9,12.1,11,0.00,,,0.00,WUHU216HW,2013-02-11 00:10:00,
2013-02-10 17:15:00,50.2,-1.3,29.84,WSW,248,7.2,11.9,12,0.00,,,0.00,WUHU216HW,2013-02-11 00:15:00,
2013-02-10 17:20:00,50.0,-1.4,29.84,SW,225,5.1,11.9,12,0.00,,,0.00,WUHU216HW,2013-02-11 00:20:00,
2013-02-10 17:25:00,50.0,-1.4,29.84,WSW,248,11.4,11.6,12,0.00,,,0.00,WUHU216HW,2013-02-11 00:25:00,
2013-02-10 17:32:00,49.7,-1.7,29.84,SSW,203,4.5,11.6,12,0.00,,,0.00,WUHU216HW,2013-02-11 00:32:00,
2013-02-10 17:37:00,49.5,-1.9,29.85,WSW,248,6.3,11.4,12,0.00,,,0.00,WUHU216HW,2013-02-11 00:37:00,
2013-02-10 17:42:00,49.0,-2.2,29.84,SW,225,11.0,11.4,12,0.00,,,0.00,WUHU216HW,2013-02-11 00:42:00,
2013-02-10 17:47:00,48.4,-2.7,29.84,WSW,248,3.8,11.4,12,0.00,,,0.00,WUHU216HW,2013-02-11 00:47:00,
2013-02-10 17:52:00,47.9,-3.0,29.84,West,270,4.9,14.3,12,0.00,,,0.00,WUHU216HW,2013-02-11 00:52:00,
2013-02-10 17:57:00,47.7,-3.2,29.85,SW,225,7.8,14.3,12,0.00,,,0.00,WUHU216HW,2013-02-11 00:57:00,
2013-02-10 18:02:00,47.3,-0.5,29.85,NNW,338,3.6,10.3,14,0.00,,,0.00,WUHU216HW,2013-02-11 01:02:00,
2013-02-10 18:07:00,47.2,0.7,29.85,WNW,293,5.4,10.3,15,0.00,,,0.00,WUHU216HW,2013-02-11 01:07:00,
2013-02-10 18:12:00,46.8,0.5,29.85,West,270,8.3,11.4,15,0.00,,,0.00,WUHU216HW,2013-02-11 01:12:00,
2013-02-10 18:17:00,46.6,1.8,29.85,West,270,10.5,11.4,16,0.00,,,0.00,WUHU216HW,2013-02-11 01:17:00,
2013-02-10 18:22:00,46.4,1.6,29.86,West,270,2.5,13.4,16,0.00,,,0.00,WUHU216HW,2013-02-11 01:22:00,
2013-02-10 18:27:00,46.3,1.5,29.86,WNW,293,2.5,13.4,16,0.00,,,0.00,WUHU216HW,2013-02-11 01:27:00,
2013-02-10 18:32:00,46.1,1.4,29.86,WNW,293,4.3,11.4,16,0.00,,,0.00,WUHU216HW,2013-02-11 01:32:00,
2013-02-10 18:37:00,45.7,-0.3,29.86,West,270,11.4,11.4,15,0.00,,,0.00,WUHU216HW,2013-02-11 01:37:00,
2013-02-10 18:42:00,45.7,-1.9,29.86,NNW,338,8.9,11.4,14,0.00,,,0.00,WUHU216HW,2013-02-11 01:42:00,
2013-02-10 18:47:00,45.4,-0.7,29.87,WNW,293,6.5,11.4,15,0.00,,,0.00,WUHU216HW,2013-02-11 01:47:00,
2013-02-10 18:52:00,45.2,-0.8,29.87,SW,225,5.4,8.9,15,0.00,,,0.00,WUHU216HW,2013-02-11 01:52:00,
2013-02-10 18:57:00,45.0,-1.0,29.87,West,270,3.6,8.9,15,0.00,,,0.00,WUHU216HW,2013-02-11 01:57:00,
2013-02-10 19:02:00,44.6,0.2,29.87,WNW,293,2.2,8.9,16,0.00,,,0.00,WUHU216HW,2013-02-11 02:02:00,
2013-02-10 19:07:00,44.3,-0.1,29.87,SW,225,1.8,5.6,16,0.00,,,0.00,WUHU216HW,2013-02-11 02:07:00,
2013-02-10 19:12:00,44.1,-0.3,29.87,WSW,248,5.8,8.7,16,0.00,,,0.00,WUHU216HW,2013-02-11 02:12:00,
2013-02-10 19:17:00,44.1,1.3,29.87,WSW,248,2.2,8.7,17,0.00,,,0.00,WUHU216HW,2013-02-11 02:17:00,
2013-02-10 19:22:00,43.9,1.1,29.87,SW,225,5.1,7.8,17,0.00,,,0.00,WUHU216HW,2013-02-11 02:22:00,
2013-02-10 19:27:00,43.9,2.5,29.87,West,270,6.7,9.2,18,0.00,,,0.00,WUHU216HW,2013-02-11 02:27:00,
2013-02-10 19:32:00,43.9,4.0,29.88,WSW,248,4.3,9.2,19,0.00,,,0.00,WUHU216HW,2013-02-11 02:32:00,
2013-02-10 19:37:00,43.6,5.1,29.88,WNW,293,5.8,7.2,20,0.00,,,0.00,WUHU216HW,2013-02-11 02:37:00,
2013-02-10 19:42:00,43.4,5.0,29.87,WSW,248,1.1,7.2,20,0.00,,,0.00,WUHU216HW,2013-02-11 02:42:00,
2013-02-10 19:47:00,43.0,5.6,29.88,NW,315,1.8,5.8,21,0.00,,,0.00,WUHU216HW,2013-02-11 02:47:00,
2013-02-10 19:52:00,42.8,5.4,29.88,WSW,248,6.3,6.3,21,0.00,,,0.00,WUHU216HW,2013-02-11 02:52:00,
2013-02-10 19:57:00,42.8,6.3,29.87,WNW,293,4.9,7.6,22,0.00,,,0.00,WUHU216HW,2013-02-11 02:57:00,
2013-02-10 20:02:00,42.8,6.3,29.88,WNW,293,3.8,7.6,22,0.00,,,0.00,WUHU216HW,2013-02-11 03:02:00,
2013-02-10 20:07:00,42.7,6.1,29.88,WSW,248,4.9,6.3,22,0.00,,,0.00,WUHU216HW,2013-02-11 03:07:00,
2013-02-10 20:12:00,42.5,6.9,29.88,SW,225,6.0,6.3,23,0.00,,,0.00,WUHU216HW,2013-02-11 03:12:00,
2013-02-10 20:17:00,42.1,6.7,29.88,NW,315,2.7,6.0,23,0.00,,,0.00,WUHU216HW,2013-02-11 03:17:00,
2013-02-10 20:22:00,42.1,7.6,29.88,SSW,203,4.7,6.0,24,0.00,,,0.00,WUHU216HW,2013-02-11 03:22:00,
2013-02-10 20:27:00,41.9,7.4,29.88,WSW,248,5.6,6.9,24,0.00,,,0.00,WUHU216HW,2013-02-11 03:27:00,
2013-02-10 20:32:00,41.8,8.1,29.88,SW,225,5.8,7.8,25,0.00,,,0.00,WUHU216HW,2013-02-11 03:32:00,
2013-02-10 20:37:00,41.6,8.0,29.88,WNW,293,4.0,7.8,25,0.00,,,0.00,WUHU216HW,2013-02-11 03:37:00,
2013-02-10 20:42:00,41.6,8.0,29.88,WSW,248,6.0,9.8,25,0.00,,,0.00,WUHU216HW,2013-02-11 03:42:00,
2013-02-10 20:47:00,41.8,8.1,29.88,WSW,248,8.3,9.8,25,0.00,,,0.00,WUHU216HW,2013-02-11 03:47:00,
2013-02-10 20:52:00,41.9,8.3,29.89,SW,225,5.4,10.5,25,0.00,,,0.00,WUHU216HW,2013-02-11 03:52:00,
2013-02-10 20:57:00,41.9,8.3,29.89,South,180,5.4,10.5,25,0.00,,,0.00,WUHU216HW,2013-02-11 03:57:00,
2013-02-10 21:02:00,41.6,8.9,29.89,WSW,248,4.0,9.8,26,0.00,,,0.00,WUHU216HW,2013-02-11 04:02:00,
2013-02-10 21:07:00,41.4,9.6,29.89,WSW,248,4.0,8.3,27,0.00,,,0.00,WUHU216HW,2013-02-11 04:07:00,
2013-02-10 21:12:00,41.4,9.6,29.89,WSW,248,5.6,8.3,27,0.00,,,0.00,WUHU216HW,2013-02-11 04:12:00,
2013-02-10 21:17:00,41.2,9.6,29.89,WSW,248,5.4,7.6,27,0.00,,,0.00,WUHU216HW,2013-02-11 04:17:00,
2013-02-10 21:22:00,41.0,9.4,29.89,West,270,2.2,7.6,27,0.00,,,0.00,WUHU216HW,2013-02-11 04:22:00,
2013-02-10 21:27:00,40.9,9.2,29.89,WSW,248,5.4,7.8,27,0.00,,,0.00,WUHU216HW,2013-02-11 04:27:00,
2013-02-10 21:32:00,40.7,9.0,29.89,West,270,4.5,7.8,27,0.00,,,0.00,WUHU216HW,2013-02-11 04:32:00,
2013-02-10 21:37:00,40.7,9.9,29.89,WNW,293,4.7,6.0,28,0.00,,,0.00,WUHU216HW,2013-02-11 04:37:00,
2013-02-10 21:42:00,40.7,9.9,29.89,WNW,293,2.7,5.1,28,0.00,,,0.00,WUHU216HW,2013-02-11 04:42:00,
2013-02-10 21:47:00,40.7,9.9,29.89,WSW,248,3.8,6.0,28,0.00,,,0.00,WUHU216HW,2013-02-11 04:47:00,
2013-02-10 21:52:00,40.5,9.8,29.90,WSW,248,4.9,6.0,28,0.00,,,0.00,WUHU216HW,2013-02-11 04:52:00,
2013-02-10 21:57:00,40.5,10.7,29.89,WSW,248,4.3,6.5,29,0.00,,,0.00,WUHU216HW,2013-02-11 04:57:00,
2013-02-10 22:00:00,40.5,10.7,29.89,WNW,293,4.9,6.5,29,0.00,,,0.00,WUHU216HW,2013-02-11 05:00:00,
2013-02-10 22:01:00,40.5,10.7,29.90,West,270,1.8,6.5,29,0.00,,,0.00,WUHU216HW,2013-02-11 05:01:00,
2013-02-10 22:06:00,40.3,10.5,29.90,WSW,248,3.8,7.4,29,0.00,,,0.00,WUHU216HW,2013-02-11 05:06:00,
2013-02-10 22:11:00,40.3,10.5,29.90,West,270,4.3,7.4,29,0.00,,,0.00,WUHU216HW,2013-02-11 05:11:00,
2013-02-10 22:16:00,40.3,10.5,29.90,WSW,248,3.4,6.5,29,0.00,,,0.00,WUHU216HW,2013-02-11 05:16:00,
2013-02-10 22:21:00,40.0,10.2,29.90,WSW,248,3.4,4.3,29,0.00,,,0.00,WUHU216HW,2013-02-11 05:21:00,
2013-02-10 22:26:00,39.8,10.0,29.90,West,270,3.1,5.1,29,0.00,,,0.00,WUHU216HW,2013-02-11 05:26:00,
2013-02-10 22:31:00,39.6,9.9,29.90,WNW,293,3.6,5.1,29,0.00,,,0.00,WUHU216HW,2013-02-11 05:31:00,
2013-02-10 22:35:00,39.4,9.7,29.90,WSW,248,2.7,4.5,29,0.00,,,0.00,WUHU216HW,2013-02-11 05:35:00,
2013-02-10 22:40:00,39.4,9.7,29.89,WSW,248,3.1,6.0,29,0.00,,,0.00,WUHU216HW,2013-02-11 05:40:00,
2013-02-10 22:46:00,39.4,10.6,29.89,WNW,293,2.5,6.0,30,0.00,,,0.00,WUHU216HW,2013-02-11 05:46:00,
2013-02-10 22:50:00,39.4,10.6,29.89,WSW,248,1.6,5.4,30,0.00,,,0.00,WUHU216HW,2013-02-11 05:50:00,
2013-02-10 22:55:00,39.2,10.4,29.89,West,270,3.4,4.7,30,0.00,,,0.00,WUHU216HW,2013-02-11 05:55:00,
2013-02-10 23:00:00,39.2,10.4,29.89,WNW,293,2.7,5.1,30,0.00,,,0.00,WUHU216HW,2013-02-11 06:00:00,
2013-02-10 23:05:00,39.1,10.3,29.89,West,270,3.8,5.1,30,0.00,,,0.00,WUHU216HW,2013-02-11 06:05:00,
2013-02-10 23:10:00,39.2,10.4,29.89,West,270,2.0,6.3,30,0.00,,,0.00,WUHU216HW,2013-02-11 06:10:00,
2013-02-10 23:15:00,39.1,10.3,29.89,West,270,3.1,6.3,30,0.00,,,0.00,WUHU216HW,2013-02-11 06:15:00,
2013-02-10 23:20:00,38.9,10.8,29.89,West,270,4.0,6.3,31,0.00,,,0.00,WUHU216HW,2013-02-11 06:20:00,
2013-02-10 23:25:00,38.7,10.6,29.88,West,270,3.1,6.3,31,0.00,,,0.00,WUHU216HW,2013-02-11 06:25:00,
2013-02-10 23:30:00,38.7,10.6,29.88,WNW,293,3.8,6.3,31,0.00,,,0.00,WUHU216HW,2013-02-11 06:30:00,
2013-02-10 23:35:00,38.7,10.0,29.89,WNW,293,3.4,5.4,30,0.00,,,0.00,WUHU216HW,2013-02-11 06:35:00,
2013-02-10 23:40:00,38.9,10.1,29.88,West,270,5.1,5.4,30,0.00,,,0.00,WUHU216HW,2013-02-11 06:40:00,
2013-02-10 23:45:00,39.1,9.4,29.88,West,270,3.4,5.1,29,0.00,,,0.00,WUHU216HW,2013-02-11 06:45:00,
2013-02-10 23:50:00,39.2,9.5,29.88,WSW,248,4.0,5.1,29,0.00,,,0.00,WUHU216HW,2013-02-11 06:50:00,
2013-02-10 23:55:00,39.2,9.5,29.88,SE,135,0.2,5.1,29,0.00,,,0.00,WUHU216HW,2013-02-11 06:55:00,